Time;durP1;ratioP1;P1;durP2;ratioP2;P2;SDS_P1;SDS_P2;PMS_P1;PMS_P2;Temp;Humidity;BMP_temperature;BMP_pressure;BME280_temperature;BME280_humidity;BME280_pressure;Samples;Min_cycle;Max_cycle;Signal;HPM_P1;HPM_P2
2023/07/18 00:01:56;;;;;;;6.32;2.33;;;;;;;14.99;74.09;102084.25;4998917;28;20673;-62
2023/07/18 00:04:21;;;;;;;7.47;2.28;;;;;;;14.97;74.12;102084.41;5000698;28;20010;-62
2023/07/18 00:06:47;;;;;;;6.95;2.25;;;;;;;14.97;74.22;102081.75;5001958;28;20567;-62
2023/07/18 00:09:12;;;;;;;6.45;2.50;;;;;;;14.99;74.12;102079.72;5001055;28;20021;-62
2023/07/18 00:11:38;;;;;;;7.43;2.70;;;;;;;14.97;74.33;102076.38;4992895;28;20068;-62
2023/07/18 00:14:03;;;;;;;6.18;2.60;;;;;;;14.93;74.41;102090.28;4990860;28;20037;-62
2023/07/18 00:16:28;;;;;;;8.27;2.70;;;;;;;14.91;74.30;102090.44;4999819;28;20018;-62
2023/07/18 00:18:53;;;;;;;5.50;2.20;;;;;;;14.85;74.57;102099.97;5002203;28;20026;-62
2023/07/18 00:21:19;;;;;;;6.50;2.17;;;;;;;14.73;74.58;102092.44;4993296;28;20030;-63
2023/07/18 00:23:45;;;;;;;6.03;2.38;;;;;;;14.67;75.09;102087.78;5000020;28;20022;-62
2023/07/18 00:26:10;;;;;;;6.82;2.83;;;;;;;14.69;74.97;102091.94;4989253;28;20913;-62
2023/07/18 00:28:35;;;;;;;13.90;3.40;;;;;;;14.66;75.38;102083.44;4997219;28;20109;-62
2023/07/18 00:31:03;;;;;;;8.77;3.30;;;;;;;14.70;75.78;102088.28;4995548;28;20018;-62
2023/07/18 00:33:28;;;;;;;8.23;3.10;;;;;;;14.71;75.50;102091.78;4987670;28;20037;-62
2023/07/18 00:35:54;;;;;;;8.55;3.78;;;;;;;14.71;75.88;102089.09;4989665;28;20030;-62
2023/07/18 00:38:20;;;;;;;6.18;3.05;;;;;;;14.67;75.82;102095.78;4987145;28;20026;-62
2023/07/18 00:40:47;;;;;;;8.18;3.10;;;;;;;14.71;76.44;102091.78;4989591;28;20512;-62
2023/07/18 00:43:14;;;;;;;8.30;4.00;;;;;;;14.69;76.64;102088.44;4984988;28;20022;-62
2023/07/18 00:45:40;;;;;;;8.48;3.88;;;;;;;14.68;76.90;102087.59;4982344;28;20022;-62
2023/07/18 00:48:07;;;;;;;9.00;3.50;;;;;;;14.66;77.16;102091.44;4986263;28;20113;-61
2023/07/18 00:50:32;;;;;;;10.75;3.42;;;;;;;14.63;76.89;102089.94;4986367;28;20097;-62
2023/07/18 00:53:00;;;;;;;11.48;3.83;;;;;;;14.50;77.34;102079.75;4985887;28;20157;-62
2023/07/18 00:55:25;;;;;;;8.20;3.33;;;;;;;14.62;77.30;102098.13;4986375;28;20026;-62
2023/07/18 00:57:52;;;;;;;8.43;2.90;;;;;;;14.60;77.30;102092.13;4980961;28;20041;-62
2023/07/18 01:00:22;;;;;;;7.13;3.13;;;;;;;14.51;76.81;102089.44;4985725;28;20534;-61
2023/07/18 01:02:47;;;;;;;9.77;3.25;;;;;;;14.41;76.72;102083.38;4984627;28;20037;-62
2023/07/18 01:05:20;;;;;;;6.07;3.20;;;;;;;14.40;77.02;102084.38;4981451;28;20034;-62
2023/07/18 01:07:46;;;;;;;7.85;3.72;;;;;;;14.35;77.15;102075.19;4986080;28;20037;-62
2023/07/18 01:10:23;;;;;;;9.18;3.60;;;;;;;14.41;77.37;102075.34;4985112;28;20403;-62
2023/07/18 01:12:59;;;;;;;8.68;3.33;;;;;;;14.37;77.30;102078.53;4984586;28;20022;-62
2023/07/18 01:15:26;;;;;;;6.78;3.20;;;;;;;14.40;77.63;102080.88;4980807;28;20030;-62
2023/07/18 01:17:51;;;;;;;9.38;3.42;;;;;;;14.35;77.44;102076.03;4984007;28;20101;-62
2023/07/18 01:20:22;;;;;;;11.32;3.38;;;;;;;14.20;77.72;102083.03;4984140;28;20070;-62
2023/07/18 01:22:53;;;;;;;7.88;3.53;;;;;;;14.19;77.50;102081.34;4982778;28;20035;-62
2023/07/18 01:25:19;;;;;;;10.95;3.70;;;;;;;14.21;77.82;102066.00;4983679;28;20026;-62
2023/07/18 01:27:49;;;;;;;10.57;3.58;;;;;;;14.17;78.19;102068.16;4984805;28;20030;-62
2023/07/18 01:30:17;;;;;;;8.88;4.18;;;;;;;14.22;78.70;102067.66;4985638;28;20026;-62
2023/07/18 01:32:43;;;;;;;10.07;4.53;;;;;;;14.26;78.86;102059.16;4984959;28;20109;-62
2023/07/18 01:35:09;;;;;;;10.45;3.80;;;;;;;14.31;78.79;102055.16;4985696;28;20088;-62
2023/07/18 01:37:36;;;;;;;9.18;4.10;;;;;;;14.32;78.82;102068.34;4986543;28;20026;-62
2023/07/18 01:40:05;;;;;;;9.15;4.47;;;;;;;14.34;78.73;102063.66;4985179;28;20553;-62
2023/07/18 01:42:30;;;;;;;13.23;3.80;;;;;;;14.24;79.05;102053.13;4981269;28;20030;-62
2023/07/18 01:44:55;;;;;;;8.40;3.90;;;;;;;14.27;78.78;102051.97;4981368;28;20037;-62
2023/07/18 01:47:21;;;;;;;9.63;4.20;;;;;;;14.24;79.19;102046.97;4983500;28;20037;-62
2023/07/18 01:49:46;;;;;;;6.60;3.35;;;;;;;14.09;79.14;102052.09;4985701;28;20559;-62
2023/07/18 01:52:11;;;;;;;6.72;2.95;;;;;;;14.00;79.15;102054.91;4985023;28;20478;-62
2023/07/18 01:54:37;;;;;;;7.25;3.70;;;;;;;13.99;78.93;102048.75;4986005;28;20033;-62
2023/07/18 01:57:04;;;;;;;6.55;4.00;;;;;;;13.85;79.50;102047.53;4981580;28;20022;-62
2023/07/18 01:59:30;;;;;;;8.88;3.90;;;;;;;13.85;79.71;102052.88;4984091;28;20426;-62
2023/07/18 02:01:56;;;;;;;11.68;4.15;;;;;;;13.88;79.82;102043.72;4985431;28;20037;-62
2023/07/18 02:04:21;;;;;;;11.48;3.65;;;;;;;13.84;80.33;102039.66;4986368;28;20061;-62
2023/07/18 02:06:46;;;;;;;8.68;3.70;;;;;;;13.83;80.33;102036.16;4985589;28;20030;-62
2023/07/18 02:09:11;;;;;;;8.70;4.03;;;;;;;13.86;80.54;102035.84;4986123;28;20029;-62
2023/07/18 02:11:37;;;;;;;7.95;3.95;;;;;;;13.91;80.45;102024.69;4985915;28;20160;-63
2023/07/18 02:14:04;;;;;;;9.35;4.05;;;;;;;13.85;80.83;102030.66;4981720;28;20104;-62
2023/07/18 02:16:30;;;;;;;9.98;4.20;;;;;;;13.84;80.86;102027.16;4985583;28;20026;-62
2023/07/18 02:19:00;;;;;;;10.57;4.13;;;;;;;13.88;80.75;102028.53;4983742;28;20113;-62
2023/07/18 02:21:26;;;;;;;11.43;4.40;;;;;;;13.84;80.63;102029.81;4986781;28;20037;-62
2023/07/18 02:23:51;;;;;;;6.72;4.05;;;;;;;13.81;80.97;102032.81;4985605;28;20030;-62
2023/07/18 02:26:16;;;;;;;8.43;4.28;;;;;;;13.76;81.04;102037.81;4985353;28;20057;-62
2023/07/18 02:28:42;;;;;;;8.15;4.30;;;;;;;13.69;81.28;102027.97;4981861;28;20027;-62
2023/07/18 02:31:07;;;;;;;10.10;4.63;;;;;;;13.69;81.74;102039.47;4984497;28;20113;-62
2023/07/18 02:33:32;;;;;;;11.20;5.03;;;;;;;13.69;82.08;102028.78;4985588;28;20419;-62
2023/07/18 02:35:58;;;;;;;11.27;4.72;;;;;;;13.76;82.08;102029.81;4985568;28;20034;-62
2023/07/18 02:38:23;;;;;;;11.60;5.25;;;;;;;13.75;82.61;102030.81;4984712;28;20124;-62
2023/07/18 02:40:49;;;;;;;10.48;5.05;;;;;;;13.73;82.78;102027.47;4986012;28;20030;-62
2023/07/18 02:43:14;;;;;;;7.18;5.20;;;;;;;13.72;82.43;102024.97;4985633;28;20038;-62
2023/07/18 02:45:40;;;;;;;9.75;5.05;;;;;;;13.71;82.87;102024.13;4983856;28;20041;-62
2023/07/18 02:48:05;;;;;;;8.93;4.90;;;;;;;13.71;82.95;102032.13;4983398;28;20488;-62
2023/07/18 02:50:30;;;;;;;12.52;5.00;;;;;;;13.71;82.98;102026.78;4982725;28;20030;-61
2023/07/18 02:52:58;;;;;;;14.20;5.15;;;;;;;13.62;83.00;102014.44;4982322;28;20161;-62
2023/07/18 02:55:23;;;;;;;9.73;4.80;;;;;;;13.59;82.97;102028.94;4985023;28;20039;-62
2023/07/18 02:57:49;;;;;;;8.52;5.13;;;;;;;13.51;83.02;102030.72;4986296;28;20484;-62
2023/07/18 03:00:20;;;;;;;12.93;4.90;;;;;;;13.41;82.98;102027.34;4983751;28;20435;-62
2023/07/18 03:02:49;;;;;;;9.57;4.70;;;;;;;13.31;83.22;102036.31;4985281;28;20060;-62
2023/07/18 03:05:16;;;;;;;13.98;5.10;;;;;;;13.23;83.40;102033.59;4986886;28;20030;-62
2023/07/18 03:07:42;;;;;;;8.98;4.88;;;;;;;13.20;83.54;102025.06;4986608;28;20550;-62
2023/07/18 03:10:08;;;;;;;9.93;4.70;;;;;;;13.18;83.64;102027.06;4987316;28;20023;-62
2023/07/18 03:12:33;;;;;;;8.32;4.60;;;;;;;13.16;83.78;102027.19;4987656;28;20026;-62
2023/07/18 03:14:58;;;;;;;8.73;4.95;;;;;;;13.18;83.62;102024.41;4984522;28;20049;-62
2023/07/18 03:17:24;;;;;;;8.32;4.53;;;;;;;13.19;83.75;102032.25;4987115;28;20073;-62
2023/07/18 03:19:49;;;;;;;8.95;5.47;;;;;;;13.15;83.59;102030.00;4988962;28;20018;-62
2023/07/18 03:22:14;;;;;;;12.70;4.85;;;;;;;13.13;84.05;102035.50;4983641;28;20038;-62
2023/07/18 03:24:40;;;;;;;8.00;4.90;;;;;;;13.06;83.60;102034.47;4987812;28;20579;-62
2023/07/18 03:27:06;;;;;;;9.18;4.60;;;;;;;13.05;84.13;102022.13;4984919;28;20036;-62
2023/07/18 03:29:31;;;;;;;10.02;5.25;;;;;;;13.05;84.26;102027.47;4989627;28;20034;-61
2023/07/18 03:31:59;;;;;;;8.82;4.97;;;;;;;12.98;83.99;102034.41;4986953;28;20088;-62
2023/07/18 03:34:24;;;;;;;9.60;4.68;;;;;;;12.95;84.22;102027.56;4989617;28;20054;-62
2023/07/18 03:36:50;;;;;;;10.30;4.88;;;;;;;12.96;84.18;102028.38;4987145;28;20462;-61
2023/07/18 03:39:15;;;;;;;9.60;4.50;;;;;;;12.94;84.10;102033.88;4988525;28;20042;-61
2023/07/18 03:41:41;;;;;;;12.82;4.65;;;;;;;12.92;84.06;102038.53;4987696;28;20022;-62
2023/07/18 03:44:07;;;;;;;7.28;4.60;;;;;;;12.92;84.57;102038.53;4999706;28;20080;-61
2023/07/18 03:46:32;;;;;;;8.85;4.53;;;;;;;12.93;84.03;102026.03;4986263;28;20082;-61
2023/07/18 03:48:57;;;;;;;10.02;4.68;;;;;;;12.84;83.90;102029.66;4986300;28;20054;-61
2023/07/18 03:51:22;;;;;;;8.35;4.22;;;;;;;12.82;83.26;102029.81;4988964;28;20110;-62
2023/07/18 03:53:48;;;;;;;7.53;4.50;;;;;;;12.86;83.82;102036.50;4989157;28;20029;-62
2023/07/18 03:56:15;;;;;;;7.43;4.65;;;;;;;12.91;83.80;102034.19;4985316;28;20030;-61
2023/07/18 03:58:42;;;;;;;5.38;3.95;;;;;;;12.92;83.48;102025.22;4986615;28;20577;-62
2023/07/18 04:01:09;;;;;;;12.25;4.53;;;;;;;12.87;83.73;102024.84;4987067;28;20349;-62
2023/07/18 04:03:35;;;;;;;9.40;4.53;;;;;;;12.91;83.80;102025.38;4985841;28;20037;-62
2023/07/18 04:06:01;;;;;;;8.00;4.20;;;;;;;12.91;83.79;102020.88;4984833;28;20050;-61
2023/07/18 04:08:28;;;;;;;6.20;4.18;;;;;;;12.92;83.59;102021.69;4987083;28;20480;-62
2023/07/18 04:10:53;;;;;;;8.20;4.55;;;;;;;12.92;83.44;102014.53;4988055;28;20049;-62
2023/07/18 04:13:18;;;;;;;7.95;4.07;;;;;;;12.87;83.55;102000.84;4988531;28;20434;-62
2023/07/18 04:15:44;;;;;;;10.48;4.63;;;;;;;12.92;83.88;102008.38;4983479;28;20030;-61
2023/07/18 04:18:09;;;;;;;7.60;4.68;;;;;;;12.91;83.98;101996.88;4987102;28;20127;-62
2023/07/18 04:20:34;;;;;;;10.40;4.38;;;;;;;12.91;83.30;102001.38;4986929;28;20043;-62
2023/07/18 04:22:59;;;;;;;10.30;4.35;;;;;;;12.97;83.68;101998.91;4988671;28;20037;-62
2023/07/18 04:25:30;;;;;;;9.48;4.38;;;;;;;12.92;83.59;102001.22;4983776;28;20021;-62
2023/07/18 04:27:55;;;;;;;8.82;4.10;;;;;;;12.91;83.27;102001.38;4982052;28;20043;-62
2023/07/18 04:30:20;;;;;;;7.00;4.18;;;;;;;12.86;83.28;101995.69;4983709;28;20038;-61
2023/07/18 04:32:46;;;;;;;10.32;4.30;;;;;;;12.75;83.04;101990.63;4984779;28;20042;-62
2023/07/18 04:35:12;;;;;;;9.23;4.07;;;;;;;12.82;83.03;101989.00;4987441;28;20034;-62
2023/07/18 04:37:37;;;;;;;11.45;4.15;;;;;;;12.87;83.36;101994.69;4986491;28;20034;-62
2023/07/18 04:40:05;;;;;;;9.23;4.03;;;;;;;12.91;83.24;101990.69;4985560;28;20164;-62
2023/07/18 04:42:31;;;;;;;10.23;4.20;;;;;;;12.94;83.13;101993.06;4988833;28;20022;-62
2023/07/18 04:44:57;;;;;;;9.00;4.03;;;;;;;12.95;83.07;101992.06;4987734;28;20812;-62
2023/07/18 04:47:22;;;;;;;9.82;4.32;;;;;;;12.98;83.16;101989.06;4985307;28;20027;-62
2023/07/18 04:49:48;;;;;;;6.47;4.40;;;;;;;12.96;83.05;101985.72;4989093;28;20035;-62
2023/07/18 04:52:13;;;;;;;9.25;4.20;;;;;;;12.94;83.40;101983.22;4990026;28;20052;-62
2023/07/18 04:54:40;;;;;;;8.18;4.50;;;;;;;12.94;83.25;101991.22;4989062;28;20030;-62
2023/07/18 04:57:05;;;;;;;8.32;3.95;;;;;;;12.92;83.44;101995.03;4989170;28;20529;-62
2023/07/18 04:59:31;;;;;;;9.20;4.20;;;;;;;12.87;83.30;101995.53;4989072;28;20097;-61
2023/07/18 05:01:56;;;;;;;8.52;3.88;;;;;;;12.85;83.60;101986.84;4987523;28;20045;-61
2023/07/18 05:04:22;;;;;;;9.50;4.10;;;;;;;12.83;83.44;101994.16;4988784;28;20623;-62
2023/07/18 05:06:48;;;;;;;6.57;4.30;;;;;;;12.83;83.70;101991.50;4989787;28;20104;-61
2023/07/18 05:09:14;;;;;;;6.20;4.07;;;;;;;12.84;84.01;101992.34;4988771;28;20065;-62
2023/07/18 05:11:39;;;;;;;9.60;4.10;;;;;;;12.86;83.89;101988.50;4989194;28;20088;-62
2023/07/18 05:14:04;;;;;;;9.75;4.35;;;;;;;12.88;84.05;101985.69;4983204;28;20077;-61
2023/07/18 05:16:30;;;;;;;8.63;4.28;;;;;;;12.90;83.99;101987.19;4985516;28;20022;-61
2023/07/18 05:18:55;;;;;;;11.00;4.60;;;;;;;12.92;83.68;101992.38;4982767;28;20157;-61
2023/07/18 05:21:20;;;;;;;7.82;3.83;;;;;;;12.95;83.93;101992.91;4984554;28;20514;-62
2023/07/18 05:23:45;;;;;;;9.18;4.03;;;;;;;12.97;84.05;101996.22;4986653;28;20041;-61
2023/07/18 05:26:11;;;;;;;10.15;4.15;;;;;;;13.01;83.71;101997.63;4986767;28;20030;-62
2023/07/18 05:28:36;;;;;;;7.85;3.97;;;;;;;13.05;83.73;101991.97;4984591;28;20026;-62
2023/07/18 05:31:08;;;;;;;9.40;4.13;;;;;;;13.10;83.82;101987.00;4987111;28;20034;-61
2023/07/18 05:33:33;;;;;;;7.55;4.10;;;;;;;13.16;83.81;102002.34;4985389;28;20026;-61
2023/07/18 05:35:59;;;;;;;9.02;4.15;;;;;;;13.16;83.79;101992.50;4983084;28;20022;-61
2023/07/18 05:38:24;;;;;;;7.35;4.18;;;;;;;13.24;83.75;101995.25;4987598;28;20057;-62
2023/07/18 05:40:50;;;;;;;8.20;4.38;;;;;;;13.27;83.82;101992.25;4987592;28;20030;-62
2023/07/18 05:43:15;;;;;;;6.30;3.88;;;;;;;13.35;83.82;101988.81;4985234;28;20034;-62
2023/07/18 05:45:40;;;;;;;10.32;4.22;;;;;;;13.43;83.61;101991.50;4981549;28;20766;-61
2023/07/18 05:48:05;;;;;;;7.00;3.85;;;;;;;13.48;83.48;102002.53;4984022;28;20034;-62
2023/07/18 05:50:31;;;;;;;7.10;3.80;;;;;;;13.54;83.66;101993.88;4984088;28;20030;-62
2023/07/18 05:52:56;;;;;;;9.13;3.95;;;;;;;13.59;83.80;101996.91;4982043;28;20030;-62
2023/07/18 05:55:21;;;;;;;10.25;4.38;;;;;;;13.64;83.39;102005.25;4984837;28;20026;-62
2023/07/18 05:57:47;;;;;;;9.65;4.43;;;;;;;13.72;83.78;102003.59;4987512;28;20026;-61
2023/07/18 06:00:13;;;;;;;10.10;4.10;;;;;;;13.79;83.52;102002.78;4988135;28;20365;-61
2023/07/18 06:02:38;;;;;;;9.35;4.30;;;;;;;13.84;83.99;101996.94;4987486;28;20022;-61
2023/07/18 06:05:07;;;;;;;9.00;4.30;;;;;;;13.95;83.94;102000.16;4989350;28;20060;-61
2023/07/18 06:07:32;;;;;;;8.60;3.70;;;;;;;14.02;83.55;102007.50;4986601;28;20080;-61
2023/07/18 06:09:57;;;;;;;10.98;4.07;;;;;;;14.10;83.19;102010.19;4988367;28;20034;-62
2023/07/18 06:12:23;;;;;;;6.90;3.55;;;;;;;14.18;82.81;102004.88;4985770;28;20105;-61
2023/07/18 06:14:48;;;;;;;8.73;3.65;;;;;;;14.23;83.01;102000.69;4988463;28;20100;-62
2023/07/18 06:17:14;;;;;;;9.82;3.45;;;;;;;14.31;82.51;102012.38;4982201;28;20070;-61
2023/07/18 06:19:39;;;;;;;6.40;3.45;;;;;;;14.40;82.72;102014.88;4988576;28;20113;-61
2023/07/18 06:22:05;;;;;;;7.65;3.47;;;;;;;14.48;82.46;102006.09;4987484;28;20037;-61
2023/07/18 06:24:31;;;;;;;9.60;3.60;;;;;;;14.56;82.63;102001.56;4988349;28;20022;-61
2023/07/18 06:26:56;;;;;;;7.57;3.45;;;;;;;14.68;82.35;102006.56;4984899;28;20070;-62
2023/07/18 06:29:22;;;;;;;8.57;3.60;;;;;;;14.75;82.30;102000.38;4981649;28;20033;-61
2023/07/18 06:31:48;;;;;;;8.02;3.45;;;;;;;14.80;81.66;101999.88;4989650;28;20088;-62
2023/07/18 06:34:13;;;;;;;5.70;3.10;;;;;;;14.86;80.81;101999.19;4992094;28;20053;-61
2023/07/18 06:36:38;;;;;;;8.07;3.00;;;;;;;14.96;80.46;102005.16;4991481;28;20057;-61
2023/07/18 06:39:07;;;;;;;10.00;2.60;;;;;;;15.02;79.79;102000.97;4991014;28;20033;-62
2023/07/18 06:41:33;;;;;;;9.38;2.92;;;;;;;15.10;79.80;102012.50;4990571;28;20060;-61
2023/07/18 06:43:58;;;;;;;6.05;2.78;;;;;;;15.22;79.69;102010.28;4988787;28;20061;-62
2023/07/18 06:46:23;;;;;;;10.88;3.03;;;;;;;15.27;79.47;102012.44;4987174;28;20145;-61
2023/07/18 06:48:49;;;;;;;6.85;2.95;;;;;;;15.31;79.28;102008.41;4987128;28;20054;-62
2023/07/18 06:51:14;;;;;;;6.75;2.88;;;;;;;15.32;78.84;102004.72;4990737;28;20034;-61
2023/07/18 06:53:39;;;;;;;10.80;3.40;;;;;;;15.33;78.15;102006.41;4991697;28;20022;-61
2023/07/18 06:56:05;;;;;;;8.75;3.03;;;;;;;15.41;78.00;102006.38;4990378;28;20172;-62
2023/07/18 06:58:30;;;;;;;9.25;2.95;;;;;;;15.45;77.40;102003.16;4989850;28;20037;-61
2023/07/18 07:00:55;;;;;;;9.55;3.35;;;;;;;15.52;76.90;102003.31;4988369;28;20590;-62
2023/07/18 07:03:21;;;;;;;6.68;3.00;;;;;;;15.58;77.10;101991.91;4990811;28;20433;-61
2023/07/18 07:05:47;;;;;;;10.82;3.00;;;;;;;15.64;77.11;101993.09;4991407;28;20022;-62
2023/07/18 07:08:12;;;;;;;9.15;3.53;;;;;;;15.73;77.04;101992.84;4991426;28;20034;-61
2023/07/18 07:10:40;;;;;;;9.13;3.35;;;;;;;15.82;76.82;101995.47;4989952;28;20037;-61
2023/07/18 07:13:06;;;;;;;9.48;3.40;;;;;;;15.90;76.45;101996.28;4991058;28;20034;-61
2023/07/18 07:15:35;;;;;;;8.57;3.20;;;;;;;16.03;76.62;101988.47;4990849;28;20026;-61
2023/07/18 07:18:01;;;;;;;12.63;4.05;;;;;;;16.12;75.91;101994.59;4991174;28;20014;-61
2023/07/18 07:20:28;;;;;;;11.77;3.42;;;;;;;16.26;76.13;101988.47;4990072;28;20037;-62
2023/07/18 07:22:54;;;;;;;10.65;3.50;;;;;;;16.31;76.05;101987.94;4990778;28;20062;-61
2023/07/18 07:25:20;;;;;;;7.22;3.30;;;;;;;16.33;75.48;101992.09;4987605;28;20147;-62
2023/07/18 07:27:46;;;;;;;11.45;3.60;;;;;;;16.38;75.38;101989.72;4988264;28;20025;-61
2023/07/18 07:30:16;;;;;;;9.27;3.17;;;;;;;16.47;74.75;101987.78;4986867;28;20081;-62
2023/07/18 07:32:45;;;;;;;6.68;2.50;;;;;;;16.56;73.95;101989.41;4991646;28;20022;-62
2023/07/18 07:35:11;;;;;;;10.27;2.47;;;;;;;16.64;73.13;101986.63;4990561;28;20524;-61
2023/07/18 07:37:40;;;;;;;11.20;2.60;;;;;;;16.69;72.09;101983.44;4990449;28;20029;-62
2023/07/18 07:40:11;;;;;;;9.05;2.40;;;;;;;16.78;71.98;101989.56;4988419;28;20022;-62
2023/07/18 07:42:44;;;;;;;5.72;2.08;;;;;;;16.81;71.92;101984.66;4985169;28;20069;-61
2023/07/18 07:45:10;;;;;;;5.07;2.08;;;;;;;16.88;71.41;101993.63;4990191;28;20018;-62
2023/07/18 07:47:36;;;;;;;7.75;1.95;;;;;;;16.93;71.32;101980.50;4990659;28;20093;-62
2023/07/18 07:50:03;;;;;;;7.80;2.30;;;;;;;17.00;70.83;101985.94;4986774;28;20034;-61
2023/07/18 07:52:28;;;;;;;7.15;1.80;;;;;;;17.04;70.34;101985.38;4989817;28;20034;-61
2023/07/18 07:54:54;;;;;;;6.85;1.95;;;;;;;17.10;69.93;101991.91;4986929;28;20026;-62
2023/07/18 07:57:20;;;;;;;4.47;1.80;;;;;;;17.12;69.74;101987.16;4987780;28;20058;-62
2023/07/18 07:59:45;;;;;;;5.30;1.55;;;;;;;17.17;69.09;101982.06;4984068;28;20108;-61
2023/07/18 08:02:13;;;;;;;4.88;1.48;;;;;;;17.28;67.95;101980.75;4986716;28;20034;-61
2023/07/18 08:04:39;;;;;;;5.93;1.73;;;;;;;17.41;68.04;101980.94;4988930;28;20481;-62
2023/07/18 08:07:05;;;;;;;4.25;1.70;;;;;;;17.48;67.89;101984.53;4990274;28;20408;-61
2023/07/18 08:09:30;;;;;;;4.53;1.77;;;;;;;17.57;67.69;101987.94;4989924;28;20031;-61
2023/07/18 08:11:55;;;;;;;7.10;1.60;;;;;;;17.68;67.07;101983.97;4990361;28;20387;-62
2023/07/18 08:14:21;;;;;;;4.55;1.50;;;;;;;17.80;65.44;101985.13;4988281;28;20034;-62
2023/07/18 08:16:47;;;;;;;4.43;1.40;;;;;;;17.93;65.35;101974.53;4988098;28;20034;-62
2023/07/18 08:19:12;;;;;;;4.55;1.40;;;;;;;18.00;63.97;101978.13;4989832;28;20034;-61
2023/07/18 08:21:37;;;;;;;4.60;1.50;;;;;;;18.05;63.72;101975.69;4988382;28;20030;-62
2023/07/18 08:24:03;;;;;;;3.35;1.17;;;;;;;18.15;63.38;101978.03;4985430;28;20486;-62
2023/07/18 08:26:28;;;;;;;3.05;1.25;;;;;;;18.25;62.36;101982.09;4988527;28;20018;-61
2023/07/18 08:28:53;;;;;;;6.28;1.35;;;;;;;18.31;62.21;101977.78;4986810;28;20034;-62
2023/07/18 08:31:19;;;;;;;2.90;1.10;;;;;;;18.40;61.79;101973.94;4979506;28;20502;-62
2023/07/18 08:33:45;;;;;;;3.85;1.08;;;;;;;18.49;61.45;101967.38;4988453;28;20030;-62
2023/07/18 08:36:10;;;;;;;5.55;1.33;;;;;;;18.57;60.74;101964.56;4989132;28;20758;-62
2023/07/18 08:38:35;;;;;;;1.50;0.93;;;;;;;18.64;59.94;101970.00;4989813;28;20565;-61
2023/07/18 08:41:00;;;;;;;7.53;1.17;;;;;;;18.70;59.93;101966.53;4989408;28;20396;-62
2023/07/18 08:43:26;;;;;;;4.07;1.10;;;;;;;18.68;59.05;101968.59;4990120;28;20022;-62
2023/07/18 08:45:52;;;;;;;2.03;0.90;;;;;;;18.72;57.82;101967.16;4986431;28;20542;-61
2023/07/18 08:48:17;;;;;;;1.08;0.80;;;;;;;18.84;57.73;101960.22;4988859;28;20057;-62
2023/07/18 08:50:44;;;;;;;3.10;0.93;;;;;;;18.94;57.83;101954.47;4989963;28;20498;-62
2023/07/18 08:53:09;;;;;;;2.53;0.95;;;;;;;19.09;57.96;101954.34;4987251;28;20057;-61
2023/07/18 08:55:36;;;;;;;2.67;0.80;;;;;;;19.14;57.79;101944.66;4988684;28;20457;-62
2023/07/18 08:58:02;;;;;;;3.00;1.00;;;;;;;19.24;57.12;101941.56;4987041;28;20049;-61
2023/07/18 09:00:28;;;;;;;4.03;0.98;;;;;;;19.38;57.25;101948.69;4982609;28;20052;-61
2023/07/18 09:02:53;;;;;;;4.57;0.90;;;;;;;19.45;55.72;101946.00;4989406;28;20080;-62
2023/07/18 09:05:33;;;;;;;4.57;1.20;;;;;;;19.54;54.59;101933.22;4987091;28;20042;-62
2023/07/18 09:08:00;;;;;;;1.77;0.70;;;;;;;19.63;54.18;101945.44;4985486;28;20164;-62
2023/07/18 09:10:25;;;;;;;2.17;0.68;;;;;;;19.67;52.65;101947.56;4988619;28;20492;-61
2023/07/18 09:12:51;;;;;;;5.18;1.10;;;;;;;19.78;52.67;101940.72;4989865;28;20073;-62
2023/07/18 09:15:20;;;;;;;1.95;0.88;;;;;;;19.90;52.61;101938.25;4988257;28;20081;-61
2023/07/18 09:18:09;;;;;;;2.95;0.88;;;;;;;20.06;53.26;101927.09;4982592;28;20053;-61
2023/07/18 09:20:34;;;;;;;1.17;0.68;;;;;;;20.23;52.60;101927.47;4988340;28;20061;-62
2023/07/18 09:23:03;;;;;;;2.40;0.80;;;;;;;20.35;51.95;101921.28;4989538;28;20100;-61
2023/07/18 09:25:29;;;;;;;2.95;0.73;;;;;;;20.47;50.65;101918.78;4981867;28;20030;-62
2023/07/18 09:27:55;;;;;;;1.20;0.50;;;;;;;20.53;49.57;101919.81;4988868;28;20156;-62
2023/07/18 09:30:28;;;;;;;1.48;0.65;;;;;;;20.48;49.04;101915.06;4983147;28;20038;-62
2023/07/18 09:32:54;;;;;;;2.00;0.60;;;;;;;20.51;48.94;101909.22;4982243;28;20034;-61
2023/07/18 09:35:20;;;;;;;2.53;0.90;;;;;;;20.65;48.95;101905.47;4985805;28;21202;-62
2023/07/18 09:37:47;;;;;;;2.60;0.70;;;;;;;20.73;48.38;101904.41;4984139;28;20111;-64
2023/07/18 09:40:14;;;;;;;1.90;0.60;;;;;;;20.70;48.11;101919.16;4985669;28;20473;-62
2023/07/18 09:42:42;;;;;;;2.03;0.65;;;;;;;20.68;48.21;101915.84;4988700;28;20042;-62
2023/07/18 09:45:09;;;;;;;1.35;0.60;;;;;;;20.56;47.63;101911.31;4985945;28;20106;-61
2023/07/18 09:47:35;;;;;;;4.15;0.93;;;;;;;20.41;48.62;101909.66;4981183;28;20025;-62
2023/07/18 09:50:01;;;;;;;2.42;0.80;;;;;;;20.21;48.41;101910.69;4984713;28;20081;-62
2023/07/18 09:52:28;;;;;;;1.38;0.63;;;;;;;20.18;49.04;101909.22;4980824;28;20412;-62
2023/07/18 09:54:53;;;;;;;2.50;0.93;;;;;;;20.28;49.39;101909.66;4987022;28;20026;-62
2023/07/18 09:57:19;;;;;;;5.88;0.90;;;;;;;20.53;49.40;101912.56;4986955;28;20023;-62
2023/07/18 09:59:48;;;;;;;1.90;0.70;;;;;;;20.77;48.89;101913.75;4985199;28;20512;-63
2023/07/18 10:02:14;;;;;;;3.38;0.80;;;;;;;20.88;48.23;101909.59;4985457;28;20033;-61
2023/07/18 10:04:40;;;;;;;1.70;0.70;;;;;;;21.04;48.05;101909.09;4980498;28;20679;-62
2023/07/18 10:07:10;;;;;;;2.72;0.90;;;;;;;21.06;47.58;101912.41;4987474;28;20071;-61
2023/07/18 10:09:36;;;;;;;2.28;1.20;;;;;;;21.13;47.96;101902.44;4979210;28;20022;-62
2023/07/18 10:12:01;;;;;;;4.00;0.90;;;;;;;21.35;47.87;101902.94;4987249;28;20026;-62
2023/07/18 10:14:46;;;;;;;1.30;0.87;;;;;;;21.41;46.88;101887.78;4987708;28;20411;-62
2023/07/18 10:17:34;;;;;;;2.53;1.00;;;;;;;21.56;46.56;101888.28;4980620;28;20484;-62
2023/07/18 10:20:04;;;;;;;2.78;1.05;;;;;;;21.51;45.95;101886.25;4987416;28;20124;-62
2023/07/18 10:22:31;;;;;;;2.75;0.95;;;;;;;21.54;45.45;101882.28;4988339;28;20475;-62
2023/07/18 10:25:05;;;;;;;3.00;1.13;;;;;;;21.77;46.41;101873.59;4985164;28;20052;-62
2023/07/18 10:27:42;;;;;;;4.68;0.80;;;;;;;21.85;45.33;101874.16;4983310;28;20034;-62
2023/07/18 10:30:09;;;;;;;4.28;0.70;;;;;;;21.83;45.03;101868.13;4984079;28;20022;-62
2023/07/18 10:32:37;;;;;;;2.42;0.73;;;;;;;21.82;45.19;101863.78;4988586;28;20024;-62
2023/07/18 10:35:08;;;;;;;0.70;0.50;;;;;;;21.88;43.71;101864.75;4987197;28;20065;-62
2023/07/18 10:37:33;;;;;;;3.20;0.47;;;;;;;21.95;42.17;101869.06;4980338;28;20018;-62
2023/07/18 10:40:01;;;;;;;1.10;0.50;;;;;;;22.13;42.56;101864.78;4987164;28;20030;-62
2023/07/18 10:42:30;;;;;;;2.05;0.60;;;;;;;22.17;41.99;101855.19;4986252;28;20049;-62
2023/07/18 10:45:06;;;;;;;2.15;0.68;;;;;;;22.22;42.29;101853.44;4986327;28;20025;-62
2023/07/18 10:47:35;;;;;;;2.90;0.73;;;;;;;22.31;42.44;101845.91;4980705;28;20047;-62
2023/07/18 10:50:01;;;;;;;3.33;0.60;;;;;;;22.39;41.44;101852.88;4982623;28;20383;-62
2023/07/18 10:52:28;;;;;;;2.33;0.50;;;;;;;22.41;40.83;101851.59;4987322;28;20080;-61
2023/07/18 10:54:58;;;;;;;1.95;0.60;;;;;;;22.38;40.20;101846.66;4984893;28;20030;-62
2023/07/18 10:57:32;;;;;;;1.38;0.50;;;;;;;22.43;39.99;101844.09;4984728;28;20026;-62
2023/07/18 10:59:59;;;;;;;1.77;0.70;;;;;;;22.54;40.22;101845.22;4982830;28;20034;-62
2023/07/18 11:02:26;;;;;;;2.53;0.95;;;;;;;22.40;39.41;101846.41;4983993;28;20045;-62
2023/07/18 11:04:51;;;;;;;3.10;0.70;;;;;;;22.40;39.42;101839.13;4982517;28;20022;-62
2023/07/18 11:07:17;;;;;;;2.40;0.60;;;;;;;22.49;39.81;101839.66;4991413;28;20096;-62
2023/07/18 11:09:42;;;;;;;2.35;0.70;;;;;;;22.69;39.83;101842.97;4987068;28;20030;-62
2023/07/18 11:12:18;;;;;;;3.05;0.65;;;;;;;22.66;38.98;101838.00;4981346;28;20026;-62
2023/07/18 11:14:44;;;;;;;2.20;0.70;;;;;;;22.81;38.71;101840.34;4985723;28;20085;-62
2023/07/18 11:17:13;;;;;;;1.08;0.57;;;;;;;22.98;39.51;101846.81;4981315;28;20046;-62
2023/07/18 11:19:38;;;;;;;1.70;0.70;;;;;;;23.03;39.63;101844.22;4988819;28;20030;-62
2023/07/18 11:22:05;;;;;;;4.15;0.80;;;;;;;23.22;39.71;101846.91;4990894;28;20080;-62